createdAt,value
2023-04-12T00:01:27.679Z,7.72
2023-04-12T00:03:55.663Z,7.76
2023-04-12T00:06:32.692Z,7.67
2023-04-12T00:09:01.357Z,7.17
2023-04-12T00:11:29.067Z,7.17
2023-04-12T00:13:56.537Z,7.18
2023-04-12T00:16:24.702Z,7.42
2023-04-12T00:18:52.148Z,7.25
2023-04-12T00:21:19.717Z,7.74
2023-04-12T00:23:47.564Z,8.01
2023-04-12T00:26:15.649Z,7.74
2023-04-12T00:28:43.238Z,7.44
2023-04-12T00:31:12.709Z,7.77
2023-04-12T00:33:40.137Z,7.47
2023-04-12T00:36:08.105Z,7.63
2023-04-12T00:38:36.593Z,7.48
2023-04-12T00:41:04.468Z,7.50
2023-04-12T00:43:31.842Z,7.88
2023-04-12T00:45:59.971Z,7.83
2023-04-12T00:48:27.588Z,7.54
2023-04-12T00:50:57.923Z,7.42
2023-04-12T00:53:25.687Z,7.04
2023-04-12T00:55:54.573Z,7.20
2023-04-12T00:58:24.411Z,6.89
2023-04-12T01:00:53.047Z,6.61
2023-04-12T01:03:24.347Z,7.04
2023-04-12T01:06:14.319Z,7.07
2023-04-12T01:09:04.842Z,7.23
2023-04-12T01:11:33.491Z,7.14
2023-04-12T01:14:22.078Z,6.80
2023-04-12T01:16:51.356Z,7.14
2023-04-12T01:19:31.619Z,7.00
2023-04-12T01:22:13.525Z,6.97
2023-04-12T01:24:55.966Z,7.23
2023-04-12T01:27:45.711Z,7.18
2023-04-12T01:30:15.941Z,7.25
2023-04-12T01:32:51.227Z,7.29
2023-04-12T01:35:21.523Z,7.24
2023-04-12T01:37:49.448Z,6.97
2023-04-12T01:40:18.697Z,6.84
2023-04-12T01:42:46.271Z,6.72
2023-04-12T01:45:14.471Z,6.55
2023-04-12T01:47:42.786Z,6.51
2023-04-12T01:50:19.093Z,6.71
2023-04-12T01:53:11.808Z,6.62
2023-04-12T01:55:42.454Z,6.76
2023-04-12T01:58:11.804Z,6.49
2023-04-12T02:00:40.242Z,6.56
2023-04-12T02:03:08.933Z,6.36
2023-04-12T02:05:36.711Z,6.51
2023-04-12T02:08:04.755Z,6.10
2023-04-12T02:10:33.480Z,6.34
2023-04-12T02:13:01.692Z,6.32
2023-04-12T02:15:31.022Z,6.42
2023-04-12T02:18:00.523Z,6.64
2023-04-12T02:20:29.379Z,6.80
2023-04-12T02:22:57.040Z,6.39
2023-04-12T02:25:24.443Z,6.30
2023-04-12T02:27:52.095Z,6.61
2023-04-12T02:30:20.373Z,6.45
2023-04-12T02:32:48.635Z,6.14
2023-04-12T02:35:17.770Z,6.63
2023-04-12T02:37:47.010Z,6.54
2023-04-12T02:40:15.640Z,6.61
2023-04-12T02:42:44.346Z,6.80
2023-04-12T02:45:12.210Z,6.75
2023-04-12T02:47:40.966Z,6.66
2023-04-12T02:50:09.113Z,6.15
2023-04-12T02:52:38.166Z,6.92
2023-04-12T02:55:06.401Z,6.74
2023-04-12T02:57:34.123Z,6.73
2023-04-12T03:00:02.131Z,6.77
2023-04-12T03:02:31.136Z,6.71
2023-04-12T03:04:59.192Z,7.20
2023-04-12T03:07:27.889Z,7.34
2023-04-12T03:09:55.475Z,6.83
2023-04-12T03:12:23.596Z,6.58
2023-04-12T03:14:51.655Z,6.65
2023-04-12T03:17:19.279Z,6.69
2023-04-12T03:19:49.380Z,7.07
2023-04-12T03:22:17.014Z,6.97
2023-04-12T03:24:46.521Z,6.96
2023-04-12T03:27:15.358Z,6.69
2023-04-12T03:29:42.800Z,6.68
2023-04-12T03:32:10.920Z,6.49
2023-04-12T03:34:39.540Z,7.01
2023-04-12T03:37:07.486Z,6.84
2023-04-12T03:39:35.893Z,6.83
2023-04-12T03:42:03.971Z,6.98
2023-04-12T03:44:32.770Z,7.02
2023-04-12T03:47:00.651Z,6.77
2023-04-12T03:49:29.999Z,6.45
2023-04-12T03:51:58.569Z,6.32
2023-04-12T03:54:26.761Z,6.12
2023-04-12T03:56:54.970Z,6.11
2023-04-12T03:59:22.625Z,6.09
2023-04-12T04:01:50.535Z,5.93
2023-04-12T04:04:19.336Z,6.03
2023-04-12T04:06:47.372Z,6.09
2023-04-12T04:09:15.600Z,6.08
2023-04-12T04:11:43.662Z,6.13
2023-04-12T04:14:11.368Z,6.48
2023-04-12T04:16:38.968Z,6.43
2023-04-12T04:19:12.715Z,6.53
2023-04-12T04:21:42.941Z,6.45
2023-04-12T04:24:11.543Z,6.49
2023-04-12T04:26:39.447Z,6.44
2023-04-12T04:29:09.526Z,6.90
2023-04-12T04:31:37.807Z,6.98
2023-04-12T04:34:06.226Z,7.00
2023-04-12T04:36:36.950Z,7.18
2023-04-12T04:39:05.379Z,7.44
2023-04-12T04:41:39.426Z,7.55
2023-04-12T04:44:09.468Z,7.56
2023-04-12T04:46:38.143Z,7.63
2023-04-12T04:49:06.279Z,8.05
2023-04-12T04:51:34.218Z,8.44
2023-04-12T04:54:02.664Z,9.05
2023-04-12T04:56:30.149Z,8.72
2023-04-12T04:58:57.798Z,8.77
2023-04-12T05:01:28.380Z,8.45
2023-04-12T05:03:56.574Z,8.78
2023-04-12T05:06:27.359Z,8.84
2023-04-12T05:08:55.502Z,9.17
2023-04-12T05:11:23.358Z,9.12
2023-04-12T05:13:51.377Z,9.29
2023-04-12T05:16:18.812Z,8.99
2023-04-12T05:18:47.401Z,8.74
2023-04-12T05:21:15.213Z,9.52
2023-04-12T05:23:46.059Z,9.03
2023-04-12T05:26:15.122Z,8.77
2023-04-12T05:28:44.651Z,9.43
2023-04-12T05:31:12.222Z,9.31
2023-04-12T05:33:39.718Z,8.94
2023-04-12T05:36:13.515Z,8.92
2023-04-12T05:38:41.995Z,8.20
2023-04-12T05:41:10.862Z,8.80
2023-04-12T05:43:38.503Z,8.24
2023-04-12T05:46:08.003Z,8.59
2023-04-12T05:48:36.183Z,8.55
2023-04-12T05:51:05.387Z,8.60
2023-04-12T05:53:33.088Z,8.13
2023-04-12T05:56:01.188Z,8.51
2023-04-12T05:58:28.971Z,8.18
2023-04-12T06:00:56.378Z,8.31
2023-04-12T06:03:24.371Z,8.32
2023-04-12T06:05:52.988Z,8.08
2023-04-12T06:08:20.426Z,8.10
2023-04-12T06:10:48.250Z,8.21
2023-04-12T06:13:15.655Z,8.11
2023-04-12T06:15:43.592Z,8.21
2023-04-12T06:18:13.012Z,8.15
2023-04-12T06:20:40.754Z,8.27
2023-04-12T06:23:08.246Z,8.54
2023-04-12T06:25:35.935Z,8.51
2023-04-12T06:28:04.188Z,8.20
2023-04-12T06:30:32.394Z,8.43
2023-04-12T06:33:00.065Z,8.56
2023-04-12T06:35:27.463Z,8.71
2023-04-12T06:37:54.888Z,8.35
2023-04-12T06:40:22.546Z,8.36
2023-04-12T06:42:49.962Z,8.71
2023-04-12T06:45:21.759Z,8.74
2023-04-12T06:47:49.460Z,8.41
2023-04-12T06:50:18.497Z,8.72
2023-04-12T07:08:00.689Z,8.89
2023-04-12T07:10:28.596Z,8.87
2023-04-12T07:12:57.057Z,9.14
2023-04-12T07:15:24.360Z,9.47
2023-04-12T07:17:52.095Z,9.55
2023-04-12T07:20:19.512Z,9.72
2023-04-12T07:22:47.210Z,9.95
2023-04-12T07:25:14.945Z,10.12
2023-04-12T07:27:42.395Z,10.46
2023-04-12T07:30:10.333Z,10.48
2023-04-12T07:32:38.077Z,10.35
2023-04-12T07:35:05.986Z,10.53
2023-04-12T07:37:33.376Z,10.75
2023-04-12T07:40:01.881Z,10.34
2023-04-12T07:42:29.281Z,10.46
2023-04-12T07:44:56.695Z,11.01
2023-04-12T07:47:24.347Z,11.62
2023-04-12T07:49:51.709Z,11.79
2023-04-12T07:52:19.095Z,11.27
2023-04-12T07:54:46.813Z,11.62
2023-04-12T07:57:14.182Z,12.02
2023-04-12T07:59:41.529Z,11.96
2023-04-12T08:02:09.293Z,11.69
2023-04-12T08:04:38.220Z,11.91
2023-04-12T08:07:05.830Z,11.96
2023-04-12T08:09:33.441Z,12.42
2023-04-12T08:12:01.705Z,12.55
2023-04-12T08:14:29.106Z,12.46
2023-04-12T08:16:56.454Z,12.61
2023-04-12T08:19:24.389Z,12.72
2023-04-12T08:21:51.794Z,12.57
2023-04-12T08:24:20.075Z,12.65
2023-04-12T08:26:47.699Z,12.64
2023-04-12T08:29:15.087Z,13.03
2023-04-12T08:31:42.591Z,13.02
2023-04-12T08:34:12.272Z,12.66
2023-04-12T08:36:39.654Z,12.80
2023-04-12T08:39:07.030Z,12.31
2023-04-12T08:41:37.004Z,13.11
2023-04-12T08:44:05.695Z,12.37
2023-04-12T08:46:36.393Z,13.10
2023-04-12T08:49:04.049Z,12.97
2023-04-12T08:51:32.842Z,12.87
2023-04-12T08:54:00.587Z,12.85
2023-04-12T08:56:29.914Z,13.18
2023-04-12T08:58:57.719Z,13.02
2023-04-12T09:01:25.160Z,12.93
2023-04-12T09:03:53.134Z,13.24
2023-04-12T09:06:20.750Z,13.30
2023-04-12T09:08:55.151Z,13.59
2023-04-12T09:11:29.553Z,13.45
2023-04-12T09:13:58.642Z,13.12
2023-04-12T09:16:40.738Z,13.43
2023-04-12T09:19:08.934Z,13.19
2023-04-12T09:21:37.056Z,13.53
2023-04-12T09:24:14.858Z,13.64
2023-04-12T09:26:42.742Z,13.67
2023-04-12T09:29:26.795Z,13.78
2023-04-12T09:32:02.842Z,14.08
2023-04-12T09:34:30.682Z,14.04
2023-04-12T09:36:58.853Z,14.27
2023-04-12T09:39:35.867Z,13.87
2023-04-12T09:42:29.922Z,13.74
2023-04-12T09:45:01.828Z,14.08
2023-04-12T09:47:40.292Z,14.28
2023-04-12T09:50:09.813Z,14.57
2023-04-12T09:52:39.213Z,14.32
2023-04-12T09:55:09.889Z,14.32
2023-04-12T09:57:42.224Z,14.13
2023-04-12T10:00:14.227Z,14.50
2023-04-12T10:02:44.434Z,14.63
2023-04-12T10:05:15.280Z,14.51
2023-04-12T10:07:44.007Z,14.27
2023-04-12T10:10:16.657Z,14.92
2023-04-12T10:12:48.220Z,14.37
2023-04-12T10:15:21.816Z,14.15
2023-04-12T10:17:54.773Z,14.59
2023-04-12T10:20:24.836Z,14.42
2023-04-12T10:22:54.955Z,14.48
2023-04-12T10:25:24.093Z,14.81
2023-04-12T10:27:51.725Z,14.90
2023-04-12T10:30:27.645Z,14.96
2023-04-12T10:33:04.416Z,14.80
2023-04-12T10:36:02.747Z,14.95
2023-04-12T10:38:37.281Z,14.85
2023-04-12T10:41:11.985Z,15.14
2023-04-12T10:43:43.628Z,15.19
2023-04-12T10:46:40.046Z,15.49
2023-04-12T10:49:09.543Z,16.04
2023-04-12T10:51:37.563Z,16.10
2023-04-12T10:54:08.063Z,15.77
2023-04-12T10:56:40.596Z,15.89
2023-04-12T10:59:14.161Z,15.77
2023-04-12T11:01:43.008Z,15.66
2023-04-12T11:04:18.980Z,15.66
2023-04-12T11:06:51.866Z,15.74
2023-04-12T11:09:46.985Z,15.87
2023-04-12T11:12:16.205Z,15.61
2023-04-12T11:14:49.379Z,16.09
2023-04-12T11:17:17.285Z,16.01
2023-04-12T11:19:52.806Z,15.99
2023-04-12T11:22:22.701Z,15.40
2023-04-12T11:24:52.913Z,15.15
2023-04-12T11:27:21.854Z,15.14
2023-04-12T11:29:51.608Z,15.77
2023-04-12T11:32:22.036Z,15.42
2023-04-12T11:34:49.897Z,15.66
2023-04-12T11:37:19.138Z,15.49
2023-04-12T11:39:47.379Z,15.98
2023-04-12T11:42:20.085Z,16.00
2023-04-12T11:44:57.685Z,15.73
2023-04-12T11:47:28.201Z,16.38
2023-04-12T11:49:57.454Z,16.59
2023-04-12T11:52:32.744Z,15.89
2023-04-12T11:55:06.776Z,15.23
2023-04-12T11:57:34.763Z,15.58
2023-04-12T12:00:06.763Z,15.82
2023-04-12T12:02:48.898Z,15.51
2023-04-12T12:05:21.070Z,15.53
2023-04-12T12:07:48.894Z,15.58
2023-04-12T12:10:32.511Z,16.01
2023-04-12T12:13:14.494Z,15.45
2023-04-12T12:15:45.687Z,15.67
2023-04-12T12:18:13.384Z,15.76
2023-04-12T12:20:50.890Z,16.09
2023-04-12T12:23:31.473Z,16.12
2023-04-12T12:26:17.682Z,15.95
2023-04-12T12:28:53.555Z,16.00
2023-04-12T12:31:23.145Z,16.13
2023-04-12T12:33:56.835Z,16.28
2023-04-12T12:36:35.967Z,15.64
2023-04-12T12:39:11.797Z,16.03
2023-04-12T12:41:40.329Z,16.02
2023-04-12T12:44:08.452Z,16.57
2023-04-12T12:49:06.359Z,15.92
2023-04-12T12:51:34.006Z,16.22
2023-04-12T12:54:01.363Z,16.27
2023-04-12T12:56:28.755Z,16.11
2023-04-12T12:58:56.614Z,16.39
2023-04-12T13:01:24.165Z,15.89
2023-04-12T13:03:51.905Z,16.37
2023-04-12T13:06:19.913Z,15.85
2023-04-12T13:08:47.299Z,16.09
2023-04-12T13:11:16.434Z,16.20
2023-04-12T13:13:44.786Z,16.90
2023-04-12T13:16:12.311Z,17.28
2023-04-12T13:18:39.949Z,16.74
2023-04-12T13:21:07.929Z,16.64
2023-04-12T13:23:35.838Z,16.56
2023-04-12T13:26:03.248Z,17.23
2023-04-12T13:28:30.901Z,17.03
2023-04-12T13:30:59.329Z,17.09
2023-04-12T13:33:27.093Z,16.84
2023-04-12T13:35:55.254Z,16.05
2023-04-12T13:38:22.707Z,16.44
2023-04-12T13:40:50.154Z,16.76
2023-04-12T13:43:17.812Z,17.12
2023-04-12T13:45:45.356Z,16.61
2023-04-12T13:48:12.851Z,16.73
2023-04-12T13:50:40.844Z,16.66
2023-04-12T13:53:08.236Z,16.16
2023-04-12T13:55:35.940Z,16.34
2023-04-12T13:58:03.562Z,15.92
2023-04-12T14:00:30.969Z,16.51
2023-04-12T14:02:58.741Z,16.88
2023-04-12T14:05:26.365Z,16.64
2023-04-12T14:07:55.637Z,16.74
2023-04-12T14:10:23.289Z,16.93
2023-04-12T14:12:50.685Z,16.54
2023-04-12T14:15:18.050Z,16.30
2023-04-12T14:17:46.261Z,16.77
2023-04-12T14:20:14.098Z,16.69
2023-04-12T14:22:41.689Z,16.36
2023-04-12T14:25:10.220Z,16.89
2023-04-12T14:27:37.960Z,16.90
2023-04-12T14:30:07.910Z,17.25
2023-04-12T14:32:37.314Z,16.64
2023-04-12T14:35:05.260Z,17.20
2023-04-12T14:37:33.195Z,17.08
2023-04-12T14:40:01.164Z,16.77
2023-04-12T14:42:28.584Z,16.56
2023-04-12T14:44:56.220Z,16.39
2023-04-12T14:47:24.165Z,16.71
2023-04-12T14:49:51.565Z,16.92
2023-04-12T14:52:19.022Z,16.84
2023-04-12T14:54:46.701Z,16.47
2023-04-12T14:57:15.524Z,16.68
2023-04-12T14:59:42.991Z,17.20
2023-04-12T15:02:10.757Z,16.73
2023-04-12T15:04:38.323Z,16.64
2023-04-12T15:07:24.571Z,16.78
2023-04-12T15:09:52.184Z,16.85
2023-04-12T15:12:19.596Z,16.99
2023-04-12T15:14:47.308Z,16.75
2023-04-12T15:17:15.148Z,16.66
2023-04-12T15:19:42.589Z,16.01
2023-04-12T15:22:09.989Z,16.10
2023-04-12T15:24:37.623Z,16.24
2023-04-12T15:27:06.578Z,16.38
2023-04-12T15:29:34.701Z,16.26
2023-04-12T15:32:02.515Z,16.62
2023-04-12T15:34:30.106Z,16.14
2023-04-12T15:36:58.138Z,16.17
2023-04-12T15:39:26.829Z,16.36
2023-04-12T15:41:54.267Z,16.18
2023-04-12T15:44:25.505Z,16.61
2023-04-12T15:47:07.874Z,16.35
2023-04-12T15:49:41.626Z,15.47
2023-04-12T15:52:09.371Z,15.69
2023-04-12T15:54:43.746Z,15.65
2023-04-12T15:57:11.978Z,16.20
2023-04-12T15:59:40.642Z,16.09
2023-04-12T16:02:09.782Z,16.23
2023-04-12T16:04:42.240Z,16.05
2023-04-12T16:07:10.878Z,15.81
2023-04-12T16:09:39.827Z,15.88
2023-04-12T16:12:08.083Z,15.61
2023-04-12T16:14:36.789Z,15.88
2023-04-12T16:17:04.696Z,15.45
2023-04-12T16:19:32.365Z,15.43
2023-04-12T16:22:01.845Z,15.65
2023-04-12T16:24:29.767Z,15.67
2023-04-12T16:26:57.543Z,15.72
2023-04-12T16:29:25.138Z,15.57
2023-04-12T16:31:53.155Z,15.67
2023-04-12T16:34:22.297Z,15.35
2023-04-12T16:36:49.863Z,15.62
2023-04-12T16:39:17.807Z,15.53
2023-04-12T16:41:46.995Z,15.56
2023-04-12T16:44:18.777Z,15.44
2023-04-12T16:46:49.023Z,15.54
2023-04-12T16:49:19.545Z,15.11
2023-04-12T16:51:50.282Z,15.17
2023-04-12T16:54:18.147Z,15.13
2023-04-12T16:56:47.919Z,15.31
2023-04-12T16:59:20.423Z,15.17
2023-04-12T17:01:48.603Z,15.22
2023-04-12T17:04:16.894Z,15.04
2023-04-12T17:06:45.127Z,14.82
2023-04-12T17:09:13.265Z,14.77
2023-04-12T17:11:42.413Z,14.84
2023-04-12T17:14:10.124Z,14.76
2023-04-12T17:16:37.883Z,14.66
2023-04-12T17:19:06.355Z,14.57
2023-04-12T17:21:43.650Z,14.48
2023-04-12T17:24:15.653Z,14.25
2023-04-12T17:26:43.593Z,14.15
2023-04-12T17:29:16.278Z,14.09
2023-04-12T17:31:45.761Z,14.25
2023-04-12T17:34:14.603Z,14.05
2023-04-12T17:36:42.920Z,13.96
2023-04-12T17:39:13.123Z,13.86
2023-04-12T17:41:41.540Z,13.78
2023-04-12T17:44:09.776Z,13.56
2023-04-12T17:46:38.550Z,13.61
2023-04-12T17:49:06.726Z,13.50
2023-04-12T17:57:42.260Z,13.40
2023-04-12T18:00:12.207Z,13.29
2023-04-12T18:02:41.389Z,13.31
2023-04-12T18:05:10.814Z,13.23
2023-04-12T18:07:42.658Z,13.16
2023-04-12T18:10:13.044Z,13.13
2023-04-12T18:12:43.293Z,13.18
2023-04-12T18:15:12.401Z,13.11
2023-04-12T18:17:41.056Z,12.99
2023-04-12T18:20:10.776Z,13.12
2023-04-12T18:22:40.095Z,13.08
2023-04-12T18:25:08.911Z,12.97
2023-04-12T18:27:39.397Z,13.06
2023-04-12T18:30:08.776Z,13.07
2023-04-12T18:32:38.053Z,13.05
2023-04-12T18:35:07.354Z,13.04
2023-04-12T18:37:37.404Z,12.99
2023-04-12T18:40:09.513Z,13.05
2023-04-12T18:42:38.620Z,12.92
2023-04-12T18:45:07.138Z,12.82
2023-04-12T18:47:37.318Z,12.81
2023-04-12T18:50:07.678Z,12.89
2023-04-12T18:52:35.800Z,12.94
2023-04-12T18:55:04.462Z,12.95
2023-04-12T18:57:33.368Z,12.83
2023-04-12T19:00:01.619Z,12.72
2023-04-12T19:02:29.746Z,12.79
2023-04-12T19:04:59.645Z,12.87
2023-04-12T19:07:27.873Z,12.86
2023-04-12T19:09:55.428Z,12.74
2023-04-12T19:12:23.818Z,12.72
2023-04-12T19:14:52.638Z,12.84
2023-04-12T19:17:28.195Z,12.63
2023-04-12T19:19:58.109Z,12.84
2023-04-12T19:22:28.508Z,12.64
2023-04-12T19:24:56.982Z,12.55
2023-04-12T19:27:25.582Z,12.47
2023-04-12T19:29:54.523Z,12.42
2023-04-12T19:32:24.009Z,12.44
2023-04-12T19:34:52.735Z,12.57
2023-04-12T19:37:23.026Z,12.69
2023-04-12T19:39:51.988Z,12.66
2023-04-12T19:42:20.975Z,12.54
2023-04-12T19:44:52.997Z,12.44
2023-04-12T19:47:22.555Z,12.21
2023-04-12T19:49:50.691Z,12.30
2023-04-12T19:52:22.361Z,12.22
2023-04-12T19:54:54.002Z,12.27
2023-04-12T19:57:24.425Z,12.18
2023-04-12T19:59:53.142Z,11.95
2023-04-12T20:02:21.905Z,12.04
2023-04-12T20:04:50.716Z,12.07
2023-04-12T20:07:19.608Z,11.81
2023-04-12T20:09:47.797Z,11.83
2023-04-12T20:12:17.365Z,11.75
2023-04-12T20:14:46.018Z,11.76
2023-04-12T20:17:14.718Z,11.68
2023-04-12T20:19:44.046Z,11.71
2023-04-12T20:22:12.734Z,11.63
2023-04-12T20:24:43.257Z,11.78
2023-04-12T20:27:17.949Z,11.69
2023-04-12T20:29:46.787Z,11.74
2023-04-12T20:32:16.133Z,11.69
2023-04-12T20:34:48.564Z,11.63
2023-04-12T20:37:18.028Z,11.63
2023-04-12T20:39:45.983Z,11.74
2023-04-12T20:42:18.954Z,11.79
2023-04-12T20:44:48.507Z,11.71
2023-04-12T20:47:16.299Z,11.67
2023-04-12T20:49:46.660Z,11.68
2023-04-12T20:52:19.128Z,11.65
2023-04-12T20:54:48.468Z,11.77
2023-04-12T20:57:20.168Z,11.54
2023-04-12T20:59:48.514Z,11.51
2023-04-12T21:02:16.625Z,11.54
2023-04-12T21:04:45.197Z,11.64
2023-04-12T21:07:12.985Z,11.58
2023-04-12T21:09:40.724Z,11.54
2023-04-12T21:12:08.515Z,11.54
2023-04-12T21:14:37.785Z,11.57
2023-04-12T21:17:07.233Z,11.59
2023-04-12T21:19:41.041Z,11.42
2023-04-12T21:22:08.789Z,11.42
2023-04-12T21:24:38.610Z,11.39
2023-04-12T21:27:09.230Z,11.49
2023-04-12T21:29:41.217Z,11.28
2023-04-12T21:32:09.739Z,11.40
2023-04-12T21:34:37.645Z,11.45
2023-04-12T21:37:05.465Z,11.33
2023-04-12T21:39:33.400Z,11.24
2023-04-12T21:42:01.721Z,11.37
2023-04-12T21:44:30.871Z,11.29
2023-04-12T21:46:58.359Z,11.19
2023-04-12T21:49:26.865Z,11.25
2023-04-12T21:51:57.026Z,11.35
2023-04-12T21:54:24.546Z,11.30
2023-04-12T21:56:52.293Z,11.10
2023-04-12T21:59:19.659Z,11.20
2023-04-12T22:01:47.037Z,11.21
2023-04-12T22:04:15.394Z,11.17
2023-04-12T22:06:44.655Z,11.22
2023-04-12T22:09:12.474Z,11.20
2023-04-12T22:11:40.135Z,11.19
2023-04-12T22:14:07.827Z,11.22
2023-04-12T22:16:35.562Z,11.20
2023-04-12T22:19:03.364Z,11.12
2023-04-12T22:21:30.991Z,11.25
2023-04-12T22:23:58.888Z,11.43
2023-04-12T22:26:26.723Z,11.22
2023-04-12T22:28:54.282Z,11.19
2023-04-12T22:31:22.962Z,11.16
2023-04-12T22:33:54.999Z,11.08
2023-04-12T22:36:28.499Z,11.12
2023-04-12T22:38:57.038Z,11.17
2023-04-12T22:41:28.299Z,10.90
2023-04-12T22:44:02.946Z,11.10
2023-04-12T22:46:33.677Z,10.81
2023-04-12T22:49:01.163Z,10.90
2023-04-12T22:51:28.565Z,10.92
2023-04-12T22:53:56.889Z,10.90
2023-04-12T22:56:25.456Z,10.85
2023-04-12T22:58:53.765Z,10.82
2023-04-12T23:01:21.696Z,10.98
2023-04-12T23:03:50.113Z,11.12
2023-04-12T23:06:19.665Z,11.16
2023-04-12T23:08:49.630Z,11.31
2023-04-12T23:11:17.193Z,11.24
2023-04-12T23:13:44.597Z,11.17
2023-04-12T23:16:12.356Z,11.33
2023-04-12T23:18:39.798Z,11.45
2023-04-12T23:21:11.087Z,11.49
2023-04-12T23:23:38.760Z,11.35
2023-04-12T23:26:06.312Z,11.43
2023-04-12T23:28:34.308Z,11.33
2023-04-12T23:31:02.086Z,11.37
2023-04-12T23:33:29.484Z,11.32
2023-04-12T23:35:57.096Z,11.39
2023-04-12T23:38:32.116Z,11.31
2023-04-12T23:41:05.833Z,11.40
2023-04-12T23:43:34.581Z,11.46
2023-04-12T23:46:03.185Z,11.61
2023-04-12T23:48:32.325Z,11.48
2023-04-12T23:51:00.331Z,11.51
2023-04-12T23:53:27.785Z,11.59
2023-04-12T23:55:55.156Z,11.54
2023-04-12T23:58:22.874Z,11.53
